createdAt,value
2022-10-06T00:03:24.698Z,16.07
2022-10-06T00:08:26.676Z,16.02
2022-10-06T00:13:29.362Z,15.95
2022-10-06T00:18:31.172Z,15.88
2022-10-06T00:23:32.871Z,15.86
2022-10-06T00:28:34.817Z,15.84
2022-10-06T00:33:37.215Z,15.79
2022-10-06T00:38:38.850Z,15.87
2022-10-06T00:43:58.777Z,15.95
2022-10-06T00:49:29.556Z,16.01
2022-10-06T00:54:33.181Z,16.08
2022-10-06T00:59:36.122Z,16.13
2022-10-06T01:04:42.246Z,16.21
2022-10-06T01:09:43.670Z,16.21
2022-10-06T01:14:45.289Z,16.23
2022-10-06T01:19:57.206Z,16.31
2022-10-06T01:24:58.715Z,16.33
2022-10-06T01:30:00.570Z,16.37
2022-10-06T01:35:01.880Z,16.48
2022-10-06T01:40:03.343Z,16.54
2022-10-06T01:45:05.775Z,16.59
2022-10-06T01:50:08.230Z,16.55
2022-10-06T01:55:09.566Z,16.46
2022-10-06T02:00:11.537Z,16.34
2022-10-06T02:05:14.585Z,16.37
2022-10-06T02:10:16.037Z,16.39
2022-10-06T02:15:17.354Z,16.48
2022-10-06T02:20:18.665Z,16.47
2022-10-06T02:25:19.950Z,16.43
2022-10-06T02:30:21.285Z,16.47
2022-10-06T02:35:22.695Z,16.28
2022-10-06T02:40:24.013Z,16.41
2022-10-06T02:45:25.349Z,16.46
2022-10-06T02:50:26.629Z,16.54
2022-10-06T02:55:27.952Z,16.41
2022-10-06T03:00:29.332Z,16.49
2022-10-06T03:05:30.621Z,16.48
2022-10-06T03:10:31.950Z,16.41
2022-10-06T03:15:33.267Z,16.34
2022-10-06T03:20:34.925Z,16.38
2022-10-06T03:25:36.211Z,16.38
2022-10-06T03:30:37.491Z,16.46
2022-10-06T03:35:38.785Z,16.51
2022-10-06T03:40:40.056Z,16.47
2022-10-06T03:45:41.333Z,16.44
2022-10-06T03:50:43.752Z,16.38
2022-10-06T03:55:45.221Z,16.36
2022-10-06T04:00:46.544Z,16.31
2022-10-06T04:05:58.186Z,16.35
2022-10-06T04:11:08.626Z,16.35
2022-10-06T04:16:19.079Z,16.38
2022-10-06T04:21:21.431Z,16.40
2022-10-06T04:26:24.792Z,16.34
2022-10-06T04:31:30.079Z,16.32
2022-10-06T04:36:38.384Z,16.35
2022-10-06T04:41:41.402Z,16.31
2022-10-06T04:46:44.531Z,16.20
2022-10-06T04:51:47.337Z,16.11
2022-10-06T04:56:48.651Z,16.17
2022-10-06T05:01:49.930Z,16.12
2022-10-06T05:06:51.304Z,16.03
2022-10-06T05:11:52.590Z,15.93
2022-10-06T05:16:53.910Z,15.81
2022-10-06T05:21:55.236Z,15.72
2022-10-06T05:27:01.473Z,15.61
2022-10-06T05:32:03.480Z,15.60
2022-10-06T05:37:04.898Z,15.56
2022-10-06T05:42:06.239Z,15.52
2022-10-06T05:47:07.656Z,15.52
2022-10-06T05:52:08.961Z,15.49
2022-10-06T05:57:10.334Z,15.51
2022-10-06T06:02:11.696Z,15.43
2022-10-06T06:07:13.094Z,15.26
2022-10-06T06:12:16.457Z,15.10
2022-10-06T06:17:18.126Z,15.11
2022-10-06T06:22:19.632Z,15.16
2022-10-06T06:27:21.001Z,15.24
2022-10-06T06:32:22.306Z,15.41
2022-10-06T06:37:23.604Z,15.54
2022-10-06T06:42:26.128Z,15.73
2022-10-06T06:47:27.450Z,15.73
2022-10-06T06:52:29.203Z,15.88
2022-10-06T06:57:30.540Z,15.99
2022-10-06T07:02:31.929Z,16.06
2022-10-06T07:07:33.288Z,16.20
2022-10-06T07:12:34.605Z,16.29
2022-10-06T07:17:54.620Z,16.39
2022-10-06T07:23:14.764Z,16.38
2022-10-06T07:28:17.078Z,16.66
2022-10-06T07:33:18.493Z,16.74
2022-10-06T07:38:24.405Z,16.73
2022-10-06T07:43:25.688Z,16.70
2022-10-06T07:48:27.017Z,17.14
2022-10-06T07:53:28.751Z,17.33
2022-10-06T07:58:30.115Z,17.39
2022-10-06T08:03:32.967Z,17.47
2022-10-06T08:08:37.817Z,17.98
2022-10-06T08:13:42.254Z,17.91
2022-10-06T08:18:49.383Z,17.83
2022-10-06T08:23:52.149Z,17.67
2022-10-06T08:28:57.372Z,17.82
2022-10-06T08:33:58.846Z,18.11
2022-10-06T08:39:00.997Z,18.00
2022-10-06T08:44:07.536Z,18.45
2022-10-06T08:49:18.440Z,18.74
2022-10-06T08:54:40.826Z,18.88
2022-10-06T08:59:46.956Z,19.46
2022-10-06T09:04:49.572Z,19.20
2022-10-06T09:10:18.614Z,19.40
2022-10-06T09:15:27.166Z,19.72
2022-10-06T09:20:39.349Z,20.37
2022-10-06T09:25:40.986Z,20.65
2022-10-06T09:30:43.320Z,21.06
2022-10-06T09:36:11.139Z,21.05
2022-10-06T09:41:13.370Z,21.57
2022-10-06T09:46:21.183Z,21.80
2022-10-06T09:51:23.618Z,23.14
2022-10-06T09:56:26.357Z,25.50
2022-10-06T10:01:29.344Z,27.75
2022-10-06T10:06:31.442Z,28.34
2022-10-06T10:11:51.225Z,27.51
2022-10-06T10:16:53.506Z,26.89
2022-10-06T10:21:57.700Z,26.19
2022-10-06T10:27:14.453Z,28.15
2022-10-06T10:32:39.368Z,28.95
2022-10-06T10:37:46.418Z,32.59
2022-10-06T10:43:05.983Z,32.64
2022-10-06T10:48:18.440Z,34.49
2022-10-06T10:53:43.208Z,36.75
2022-10-06T10:58:47.558Z,37.79
2022-10-06T11:03:56.438Z,38.41
2022-10-06T11:09:05.584Z,38.32
2022-10-06T11:14:26.169Z,38.76
2022-10-06T11:20:04.739Z,39.41
2022-10-06T11:25:40.909Z,38.69
2022-10-06T11:30:57.189Z,39.73
2022-10-06T11:36:00.698Z,39.10
2022-10-06T11:41:39.254Z,40.12
2022-10-06T11:46:45.410Z,39.62
2022-10-06T11:51:46.795Z,40.72
2022-10-06T11:56:48.101Z,41.43
2022-10-06T12:01:50.685Z,41.43
2022-10-06T12:06:57.996Z,42.47
2022-10-06T12:12:00.661Z,41.41
2022-10-06T12:17:16.843Z,41.44
2022-10-06T12:22:37.953Z,42.88
2022-10-06T12:28:09.732Z,44.27
2022-10-06T12:33:19.462Z,44.72
2022-10-06T12:38:42.980Z,45.78
2022-10-06T12:43:55.869Z,46.12
2022-10-06T12:49:26.757Z,46.39
2022-10-06T12:54:35.529Z,46.20
2022-10-06T12:59:38.417Z,45.02
2022-10-06T13:04:56.604Z,45.14
2022-10-06T13:10:13.762Z,45.25
2022-10-06T13:15:23.572Z,45.74
2022-10-06T13:20:52.438Z,44.93
2022-10-06T13:26:01.228Z,45.12
2022-10-06T13:31:11.650Z,45.34
2022-10-06T13:36:13.381Z,45.78
2022-10-06T13:41:20.822Z,45.61
2022-10-06T13:46:25.689Z,45.05
2022-10-06T13:51:30.117Z,45.18
2022-10-06T13:56:37.773Z,45.14
2022-10-06T14:01:39.125Z,44.45
2022-10-06T14:06:51.106Z,43.89
2022-10-06T14:12:01.418Z,43.01
2022-10-06T14:17:02.846Z,41.88
2022-10-06T14:22:05.745Z,40.26
2022-10-06T14:27:07.169Z,35.83
2022-10-06T14:32:16.050Z,32.16
2022-10-06T14:37:17.339Z,29.79
2022-10-06T14:42:22.363Z,28.52
2022-10-06T14:47:23.735Z,27.08
2022-10-06T14:52:25.030Z,26.25
2022-10-06T14:57:26.278Z,25.45
2022-10-06T15:02:27.827Z,24.66
2022-10-06T15:07:47.695Z,24.15
2022-10-06T15:12:49.002Z,23.61
2022-10-06T15:17:50.262Z,23.20
2022-10-06T15:22:51.523Z,23.08
2022-10-06T15:28:11.329Z,22.58
2022-10-06T15:33:12.694Z,21.98
2022-10-06T15:38:13.955Z,21.84
2022-10-06T15:43:35.173Z,21.82
2022-10-06T15:48:36.460Z,21.72
2022-10-06T15:53:37.759Z,21.38
2022-10-06T15:58:39.704Z,21.27
2022-10-06T16:03:41.521Z,21.19
2022-10-06T16:08:42.798Z,20.98
2022-10-06T16:13:44.060Z,20.87
2022-10-06T16:18:45.352Z,20.73
2022-10-06T16:23:46.655Z,20.70
2022-10-06T16:28:48.126Z,20.34
2022-10-06T16:33:49.502Z,20.37
2022-10-06T16:38:52.469Z,20.11
2022-10-06T16:43:54.154Z,20.14
2022-10-06T16:48:57.558Z,19.95
2022-10-06T16:54:01.120Z,19.82
2022-10-06T16:59:05.464Z,19.64
2022-10-06T17:04:15.311Z,19.57
2022-10-06T17:09:18.811Z,19.40
2022-10-06T17:14:21.449Z,19.04
2022-10-06T17:19:28.447Z,18.92
2022-10-06T17:24:31.315Z,18.78
2022-10-06T17:29:32.754Z,18.53
2022-10-06T17:34:34.133Z,18.46
2022-10-06T17:39:35.384Z,18.41
2022-10-06T17:44:36.698Z,18.25
2022-10-06T17:49:37.977Z,18.15
2022-10-06T17:54:41.361Z,17.97
2022-10-06T17:59:42.661Z,17.90
2022-10-06T18:04:44.429Z,17.85
2022-10-06T18:10:05.732Z,17.77
2022-10-06T18:15:08.854Z,17.53
2022-10-06T18:20:10.337Z,17.43
2022-10-06T18:25:16.559Z,17.43
2022-10-06T18:30:17.852Z,17.31
2022-10-06T18:40:40.556Z,17.16
2022-10-06T18:46:00.717Z,16.98
2022-10-06T18:51:02.261Z,16.85
2022-10-06T18:56:07.135Z,16.81
2022-10-06T19:01:08.703Z,16.74
2022-10-06T19:06:10.217Z,16.81
2022-10-06T19:11:29.926Z,16.68
2022-10-06T19:16:31.326Z,16.41
2022-10-06T19:21:32.652Z,16.43
2022-10-06T19:26:34.302Z,16.39
2022-10-06T19:31:41.602Z,16.24
2022-10-06T19:36:49.362Z,16.08
2022-10-06T19:42:13.444Z,16.01
2022-10-06T19:47:15.259Z,15.96
2022-10-06T19:52:16.773Z,15.80
2022-10-06T19:57:18.094Z,15.79
2022-10-06T20:02:19.752Z,15.59
2022-10-06T20:07:25.300Z,15.51
2022-10-06T20:12:28.253Z,15.45
2022-10-06T20:17:29.586Z,15.33
2022-10-06T20:22:33.965Z,15.43
2022-10-06T20:27:35.270Z,15.30
2022-10-06T20:32:36.641Z,15.05
2022-10-06T20:37:41.655Z,14.88
2022-10-06T20:42:48.486Z,14.91
2022-10-06T20:47:50.543Z,14.86
2022-10-06T20:52:53.269Z,14.67
2022-10-06T20:57:54.832Z,14.36
2022-10-06T21:02:56.652Z,14.33
2022-10-06T21:07:57.939Z,14.36
2022-10-06T21:12:59.524Z,14.32
2022-10-06T21:18:01.323Z,14.30
2022-10-06T21:23:03.307Z,14.27
2022-10-06T21:28:05.016Z,14.18
2022-10-06T21:33:06.374Z,14.08
2022-10-06T21:38:11.059Z,13.97
2022-10-06T21:43:12.305Z,13.85
2022-10-06T21:48:13.886Z,13.85
2022-10-06T21:53:15.232Z,13.82
2022-10-06T21:58:16.801Z,13.77
2022-10-06T22:03:18.052Z,13.65
2022-10-06T22:08:19.286Z,13.47
2022-10-06T22:13:21.544Z,13.41
2022-10-06T22:18:22.775Z,13.49
2022-10-06T22:23:24.131Z,13.48
2022-10-06T22:28:25.542Z,13.41
2022-10-06T22:33:26.920Z,13.39
2022-10-06T22:38:28.361Z,13.31
2022-10-06T22:43:29.995Z,13.19
2022-10-06T22:48:31.615Z,13.16
2022-10-06T22:53:33.573Z,13.18
2022-10-06T22:58:34.925Z,13.16
2022-10-06T23:03:36.204Z,13.20
2022-10-06T23:08:38.366Z,13.00
2022-10-06T23:13:40.514Z,12.99
2022-10-06T23:18:42.961Z,12.81
2022-10-06T23:23:45.252Z,12.80
2022-10-06T23:28:51.252Z,12.77
2022-10-06T23:33:53.957Z,12.67
2022-10-06T23:38:55.702Z,12.69
2022-10-06T23:43:56.967Z,12.57
2022-10-06T23:48:58.335Z,12.71
2022-10-06T23:53:59.558Z,12.56
2022-10-06T23:59:00.804Z,12.47
